sensor_id;sensor_type;location;lat;lon;timestamp;pressure;altitude;pressure_sealevel;temperature;humidity
29359;BME280;16347;53.232;6.556;2023-02-14T00:01:56;103598.56;;;9.53;61.17
29359;BME280;16347;53.232;6.556;2023-02-14T00:04:24;103613.34;;;9.47;61.41
29359;BME280;16347;53.232;6.556;2023-02-14T00:06:52;103606.19;;;9.46;61.23
29359;BME280;16347;53.232;6.556;2023-02-14T00:09:20;103607.38;;;9.41;60.99
29359;BME280;16347;53.232;6.556;2023-02-14T00:11:49;103611.53;;;9.31;60.80
29359;BME280;16347;53.232;6.556;2023-02-14T00:14:18;103605.41;;;9.27;61.30
29359;BME280;16347;53.232;6.556;2023-02-14T00:17:04;103603.41;;;9.31;61.11
29359;BME280;16347;53.232;6.556;2023-02-14T00:19:32;103604.28;;;9.31;61.33
29359;BME280;16347;53.232;6.556;2023-02-14T00:22:02;103598.69;;;9.34;61.14
29359;BME280;16347;53.232;6.556;2023-02-14T00:24:30;103597.66;;;9.37;60.78
29359;BME280;16347;53.232;6.556;2023-02-14T00:27:00;103592.84;;;9.42;60.69
29359;BME280;16347;53.232;6.556;2023-02-14T00:29:30;103601.06;;;9.40;60.63
29359;BME280;16347;53.232;6.556;2023-02-14T00:32:00;103588.88;;;9.32;60.76
29359;BME280;16347;53.232;6.556;2023-02-14T00:34:29;103597.34;;;9.25;60.29
29359;BME280;16347;53.232;6.556;2023-02-14T00:36:59;103582.72;;;9.28;60.37
29359;BME280;16347;53.232;6.556;2023-02-14T00:39:27;103581.13;;;9.24;60.42
29359;BME280;16347;53.232;6.556;2023-02-14T00:41:55;103593.69;;;9.26;60.19
29359;BME280;16347;53.232;6.556;2023-02-14T00:44:24;103590.09;;;9.26;60.39
29359;BME280;16347;53.232;6.556;2023-02-14T00:46:52;103586.84;;;9.19;60.10
29359;BME280;16347;53.232;6.556;2023-02-14T00:49:22;103588.03;;;9.14;60.11
29359;BME280;16347;53.232;6.556;2023-02-14T00:51:50;103585.97;;;9.19;60.10
29359;BME280;16347;53.232;6.556;2023-02-14T00:54:18;103588.03;;;9.14;59.80
29359;BME280;16347;53.232;6.556;2023-02-14T00:56:46;103581.59;;;9.16;59.97
29359;BME280;16347;53.232;6.556;2023-02-14T00:59:14;103585.41;;;9.12;59.93
29359;BME280;16347;53.232;6.556;2023-02-14T01:01:43;103564.16;;;9.03;59.71
29359;BME280;16347;53.232;6.556;2023-02-14T01:04:11;103574.78;;;9.08;59.76
29359;BME280;16347;53.232;6.556;2023-02-14T01:06:39;103566.88;;;9.03;59.74
29359;BME280;16347;53.232;6.556;2023-02-14T01:09:07;103568.66;;;9.04;60.09
29359;BME280;16347;53.232;6.556;2023-02-14T01:11:37;103562.63;;;8.99;60.03
29359;BME280;16347;53.232;6.556;2023-02-14T01:14:06;103567.94;;;9.01;59.70
29359;BME280;16347;53.232;6.556;2023-02-14T01:16:34;103568.81;;;9.01;60.00
29359;BME280;16347;53.232;6.556;2023-02-14T01:19:04;103570.91;;;8.96;59.79
29359;BME280;16347;53.232;6.556;2023-02-14T01:21:32;103573.09;;;8.90;59.80
29359;BME280;16347;53.232;6.556;2023-02-14T01:24:02;103565.78;;;8.90;59.76
29359;BME280;16347;53.232;6.556;2023-02-14T01:26:31;103571.22;;;8.90;59.67
29359;BME280;16347;53.232;6.556;2023-02-14T01:29:00;103567.66;;;8.90;59.74
29359;BME280;16347;53.232;6.556;2023-02-14T01:31:30;103570.50;;;8.87;59.69
29359;BME280;16347;53.232;6.556;2023-02-14T01:33:59;103573.09;;;8.90;59.57
29359;BME280;16347;53.232;6.556;2023-02-14T01:36:31;103569.88;;;8.82;59.69
29359;BME280;16347;53.232;6.556;2023-02-14T01:39:02;103570.84;;;8.81;60.05
29359;BME280;16347;53.232;6.556;2023-02-14T01:41:34;103567.41;;;8.77;59.75
29359;BME280;16347;53.232;6.556;2023-02-14T01:44:05;103570.06;;;8.79;59.80
29359;BME280;16347;53.232;6.556;2023-02-14T01:46:35;103566.06;;;8.68;59.67
29359;BME280;16347;53.232;6.556;2023-02-14T01:49:09;103562.31;;;8.71;59.84
29359;BME280;16347;53.232;6.556;2023-02-14T01:51:42;103566.69;;;8.73;59.71
29359;BME280;16347;53.232;6.556;2023-02-14T01:54:11;103563.19;;;8.89;59.66
29359;BME280;16347;53.232;6.556;2023-02-14T01:56:42;103558.88;;;8.67;59.32
29359;BME280;16347;53.232;6.556;2023-02-14T01:59:15;103551.47;;;8.71;59.51
29359;BME280;16347;53.232;6.556;2023-02-14T02:01:47;103550.03;;;8.64;59.91
29359;BME280;16347;53.232;6.556;2023-02-14T02:04:21;103545.25;;;8.52;59.99
29359;BME280;16347;53.232;6.556;2023-02-14T02:06:56;103543.25;;;8.55;59.82
29359;BME280;16347;53.232;6.556;2023-02-14T02:09:31;103544.88;;;8.59;59.68
29359;BME280;16347;53.232;6.556;2023-02-14T02:12:00;103548.75;;;8.71;59.19
29359;BME280;16347;53.232;6.556;2023-02-14T02:14:29;103542.28;;;8.56;59.30
29359;BME280;16347;53.232;6.556;2023-02-14T02:17:10;103552.34;;;8.54;59.63
29359;BME280;16347;53.232;6.556;2023-02-14T02:23:09;103535.50;;;8.48;59.47
29359;BME280;16347;53.232;6.556;2023-02-14T02:26:02;103536.72;;;8.42;59.81
29359;BME280;16347;53.232;6.556;2023-02-14T02:29:00;103535.34;;;8.51;59.95
29359;BME280;16347;53.232;6.556;2023-02-14T02:31:54;103538.06;;;8.51;60.01
29359;BME280;16347;53.232;6.556;2023-02-14T02:37:39;103528.88;;;8.53;59.63
29359;BME280;16347;53.232;6.556;2023-02-14T02:40:21;103529.31;;;8.46;59.65
29359;BME280;16347;53.232;6.556;2023-02-14T02:42:57;103527.63;;;8.43;59.62
29359;BME280;16347;53.232;6.556;2023-02-14T02:45:36;103518.59;;;8.43;59.49
29359;BME280;16347;53.232;6.556;2023-02-14T02:48:34;103523.22;;;8.41;59.57
29359;BME280;16347;53.232;6.556;2023-02-14T02:51:09;103515.88;;;8.43;59.79
29359;BME280;16347;53.232;6.556;2023-02-14T02:54:01;103520.75;;;8.36;59.39
29359;BME280;16347;53.232;6.556;2023-02-14T02:56:33;103517.97;;;8.38;59.72
29359;BME280;16347;53.232;6.556;2023-02-14T02:59:15;103521.78;;;8.34;60.11
29359;BME280;16347;53.232;6.556;2023-02-14T03:01:54;103507.75;;;8.43;59.76
29359;BME280;16347;53.232;6.556;2023-02-14T03:04:25;103513.50;;;8.37;59.56
29359;BME280;16347;53.232;6.556;2023-02-14T03:07:12;103506.25;;;8.37;59.68
29359;BME280;16347;53.232;6.556;2023-02-14T03:10:00;103508.56;;;8.45;59.16
29359;BME280;16347;53.232;6.556;2023-02-14T03:12:56;103502.19;;;8.46;59.63
29359;BME280;16347;53.232;6.556;2023-02-14T03:15:40;103496.69;;;8.47;59.58
29359;BME280;16347;53.232;6.556;2023-02-14T03:18:24;103505.63;;;8.49;59.34
29359;BME280;16347;53.232;6.556;2023-02-14T03:21:22;103500.28;;;8.48;59.50
29359;BME280;16347;53.232;6.556;2023-02-14T03:23:57;103503.88;;;8.48;59.83
29359;BME280;16347;53.232;6.556;2023-02-14T03:26:36;103497.56;;;8.48;59.46
29359;BME280;16347;53.232;6.556;2023-02-14T03:29:12;103504.91;;;8.46;59.42
29359;BME280;16347;53.232;6.556;2023-02-14T03:31:53;103502.31;;;8.43;59.31
29359;BME280;16347;53.232;6.556;2023-02-14T03:34:26;103507.34;;;8.33;59.87
29359;BME280;16347;53.232;6.556;2023-02-14T03:37:00;103500.25;;;8.31;59.87
29359;BME280;16347;53.232;6.556;2023-02-14T03:39:34;103498.13;;;8.37;59.67
29359;BME280;16347;53.232;6.556;2023-02-14T03:42:11;103496.13;;;8.41;59.61
29359;BME280;16347;53.232;6.556;2023-02-14T03:44:42;103498.06;;;8.39;59.56
29359;BME280;16347;53.232;6.556;2023-02-14T03:47:13;103495.13;;;8.24;59.55
29359;BME280;16347;53.232;6.556;2023-02-14T03:49:47;103494.53;;;8.37;59.93
29359;BME280;16347;53.232;6.556;2023-02-14T03:52:16;103488.94;;;8.57;59.54
29359;BME280;16347;53.232;6.556;2023-02-14T03:54:46;103489.09;;;8.37;59.53
29359;BME280;16347;53.232;6.556;2023-02-14T03:57:23;103492.63;;;8.39;60.19
29359;BME280;16347;53.232;6.556;2023-02-14T03:59:52;103487.09;;;8.40;59.55
29359;BME280;16347;53.232;6.556;2023-02-14T04:02:25;103487.19;;;8.39;59.63
29359;BME280;16347;53.232;6.556;2023-02-14T04:04:55;103485.44;;;8.38;59.80
29359;BME280;16347;53.232;6.556;2023-02-14T04:07:25;103489.25;;;8.34;59.79
29359;BME280;16347;53.232;6.556;2023-02-14T04:09:53;103481.63;;;8.42;59.64
29359;BME280;16347;53.232;6.556;2023-02-14T04:12:22;103483.50;;;8.40;59.80
29359;BME280;16347;53.232;6.556;2023-02-14T04:15:04;103484.81;;;8.33;59.72
29359;BME280;16347;53.232;6.556;2023-02-14T04:17:33;103483.84;;;8.34;59.93
29359;BME280;16347;53.232;6.556;2023-02-14T04:20:19;103473.97;;;8.33;60.07
29359;BME280;16347;53.232;6.556;2023-02-14T04:22:48;103480.50;;;8.29;60.05
29359;BME280;16347;53.232;6.556;2023-02-14T04:25:17;103473.97;;;8.33;59.88
29359;BME280;16347;53.232;6.556;2023-02-14T04:27:47;103479.63;;;8.28;59.86
29359;BME280;16347;53.232;6.556;2023-02-14T04:30:16;103480.25;;;8.33;60.36
29359;BME280;16347;53.232;6.556;2023-02-14T04:32:46;103473.88;;;8.34;60.38
29359;BME280;16347;53.232;6.556;2023-02-14T04:35:14;103470.44;;;8.31;60.10
29359;BME280;16347;53.232;6.556;2023-02-14T04:37:43;103474.09;;;8.30;59.82
29359;BME280;16347;53.232;6.556;2023-02-14T04:40:12;103474.09;;;8.30;59.74
29359;BME280;16347;53.232;6.556;2023-02-14T04:42:43;103475.00;;;8.30;59.76
29359;BME280;16347;53.232;6.556;2023-02-14T04:45:13;103484.69;;;8.17;60.06
29359;BME280;16347;53.232;6.556;2023-02-14T04:47:41;103481.19;;;8.15;60.36
29359;BME280;16347;53.232;6.556;2023-02-14T04:50:10;103482.13;;;8.14;60.61
29359;BME280;16347;53.232;6.556;2023-02-14T04:52:38;103481.25;;;8.13;60.94
29359;BME280;16347;53.232;6.556;2023-02-14T04:55:08;103476.66;;;8.15;60.64
29359;BME280;16347;53.232;6.556;2023-02-14T04:57:36;103471.94;;;8.19;60.75
29359;BME280;16347;53.232;6.556;2023-02-14T05:00:05;103468.25;;;8.20;60.92
29359;BME280;16347;53.232;6.556;2023-02-14T05:02:35;103470.75;;;8.24;60.55
29359;BME280;16347;53.232;6.556;2023-02-14T05:05:05;103466.44;;;8.20;60.51
29359;BME280;16347;53.232;6.556;2023-02-14T05:07:33;103469.31;;;8.17;60.75
29359;BME280;16347;53.232;6.556;2023-02-14T05:10:01;103467.31;;;8.21;60.46
29359;BME280;16347;53.232;6.556;2023-02-14T05:12:29;103472.91;;;8.18;60.37
29359;BME280;16347;53.232;6.556;2023-02-14T05:14:57;103466.06;;;8.28;60.18
29359;BME280;16347;53.232;6.556;2023-02-14T05:17:26;103469.78;;;8.25;60.08
29359;BME280;16347;53.232;6.556;2023-02-14T05:19:55;103468.19;;;8.21;60.47
29359;BME280;16347;53.232;6.556;2023-02-14T05:22:23;103468.03;;;8.24;60.08
29359;BME280;16347;53.232;6.556;2023-02-14T05:24:51;103460.47;;;8.14;60.56
29359;BME280;16347;53.232;6.556;2023-02-14T05:27:19;103466.53;;;8.19;60.53
29359;BME280;16347;53.232;6.556;2023-02-14T05:29:47;103461.34;;;8.14;60.52
29359;BME280;16347;53.232;6.556;2023-02-14T05:32:15;103453.22;;;8.14;60.85
29359;BME280;16347;53.232;6.556;2023-02-14T05:34:43;103454.09;;;8.15;60.76
29359;BME280;16347;53.232;6.556;2023-02-14T05:37:12;103452.31;;;8.14;60.77
29359;BME280;16347;53.232;6.556;2023-02-14T05:39:41;103445.41;;;8.08;60.96
29359;BME280;16347;53.232;6.556;2023-02-14T05:42:09;103447.13;;;8.09;61.51
29359;BME280;16347;53.232;6.556;2023-02-14T05:44:37;103447.13;;;8.09;61.53
29359;BME280;16347;53.232;6.556;2023-02-14T05:47:05;103436.00;;;8.15;61.38
29359;BME280;16347;53.232;6.556;2023-02-14T05:49:33;103437.19;;;8.10;61.77
29359;BME280;16347;53.232;6.556;2023-02-14T05:52:02;103442.44;;;8.13;61.47
29359;BME280;16347;53.232;6.556;2023-02-14T05:54:32;103441.31;;;8.17;61.44
29359;BME280;16347;53.232;6.556;2023-02-14T05:57:00;103443.25;;;8.15;61.73
29359;BME280;16347;53.232;6.556;2023-02-14T05:59:28;103442.13;;;8.19;61.42
29359;BME280;16347;53.232;6.556;2023-02-14T06:01:56;103443.16;;;8.16;61.52
29359;BME280;16347;53.232;6.556;2023-02-14T06:04:24;103443.47;;;8.10;61.05
29359;BME280;16347;53.232;6.556;2023-02-14T06:06:52;103441.00;;;8.06;61.49
29359;BME280;16347;53.232;6.556;2023-02-14T06:09:21;103441.09;;;8.04;61.24
29359;BME280;16347;53.232;6.556;2023-02-14T06:11:51;103443.63;;;8.07;61.52
29359;BME280;16347;53.232;6.556;2023-02-14T06:14:21;103449.06;;;8.07;62.08
29359;BME280;16347;53.232;6.556;2023-02-14T06:16:49;103448.19;;;8.07;61.77
29359;BME280;16347;53.232;6.556;2023-02-14T06:19:17;103451.78;;;8.07;61.61
29359;BME280;16347;53.232;6.556;2023-02-14T06:21:46;103454.41;;;8.09;61.87
29359;BME280;16347;53.232;6.556;2023-02-14T06:24:14;103457.72;;;7.97;61.63
29359;BME280;16347;53.232;6.556;2023-02-14T06:26:43;103443.97;;;8.01;61.52
29359;BME280;16347;53.232;6.556;2023-02-14T06:29:15;103448.66;;;7.98;61.64
29359;BME280;16347;53.232;6.556;2023-02-14T06:31:44;103447.63;;;8.00;61.61
29359;BME280;16347;53.232;6.556;2023-02-14T06:34:12;103439.59;;;7.99;62.09
29359;BME280;16347;53.232;6.556;2023-02-14T06:36:41;103435.84;;;8.01;61.87
29359;BME280;16347;53.232;6.556;2023-02-14T06:39:09;103435.13;;;7.98;61.67
29359;BME280;16347;53.232;6.556;2023-02-14T06:41:37;103439.25;;;8.05;61.80
29359;BME280;16347;53.232;6.556;2023-02-14T06:44:05;103442.84;;;8.05;61.70
29359;BME280;16347;53.232;6.556;2023-02-14T06:46:38;103445.72;;;8.02;61.73
29359;BME280;16347;53.232;6.556;2023-02-14T06:49:06;103443.97;;;8.01;61.34
29359;BME280;16347;53.232;6.556;2023-02-14T06:51:34;103441.56;;;7.95;61.68
29359;BME280;16347;53.232;6.556;2023-02-14T06:54:02;103443.09;;;8.01;61.63
29359;BME280;16347;53.232;6.556;2023-02-14T06:56:30;103448.81;;;7.95;61.47
29359;BME280;16347;53.232;6.556;2023-02-14T06:58:58;103454.13;;;7.96;61.45
29359;BME280;16347;53.232;6.556;2023-02-14T07:01:27;103460.81;;;7.89;61.65
29359;BME280;16347;53.232;6.556;2023-02-14T07:03:57;103456.44;;;7.87;61.27
29359;BME280;16347;53.232;6.556;2023-02-14T07:06:25;103451.91;;;7.87;61.40
29359;BME280;16347;53.232;6.556;2023-02-14T07:08:53;103451.97;;;7.86;61.72
29359;BME280;16347;53.232;6.556;2023-02-14T07:11:21;103456.91;;;7.78;61.29
29359;BME280;16347;53.232;6.556;2023-02-14T07:13:50;103449.69;;;7.78;61.80
29359;BME280;16347;53.232;6.556;2023-02-14T07:16:19;103452.13;;;7.83;61.45
29359;BME280;16347;53.232;6.556;2023-02-14T07:18:47;103447.03;;;7.77;61.53
29359;BME280;16347;53.232;6.556;2023-02-14T07:21:17;103456.19;;;7.74;61.62
29359;BME280;16347;53.232;6.556;2023-02-14T07:23:46;103451.81;;;7.71;61.48
29359;BME280;16347;53.232;6.556;2023-02-14T07:26:15;103454.13;;;7.79;61.55
29359;BME280;16347;53.232;6.556;2023-02-14T07:28:46;103457.88;;;7.77;60.90
29359;BME280;16347;53.232;6.556;2023-02-14T07:31:15;103468.63;;;7.78;61.16
29359;BME280;16347;53.232;6.556;2023-02-14T07:33:45;103468.69;;;7.77;61.16
29359;BME280;16347;53.232;6.556;2023-02-14T07:36:14;103459.06;;;7.71;61.27
29359;BME280;16347;53.232;6.556;2023-02-14T07:38:43;103461.03;;;7.67;61.31
29359;BME280;16347;53.232;6.556;2023-02-14T07:41:12;103457.22;;;7.71;60.90
29359;BME280;16347;53.232;6.556;2023-02-14T07:43:40;103455.00;;;7.80;60.88
29359;BME280;16347;53.232;6.556;2023-02-14T07:46:09;103459.84;;;7.73;61.05
29359;BME280;16347;53.232;6.556;2023-02-14T07:48:37;103451.81;;;7.71;60.77
29359;BME280;16347;53.232;6.556;2023-02-14T07:51:05;103453.91;;;7.84;60.69
29359;BME280;16347;53.232;6.556;2023-02-14T07:53:33;103455.56;;;7.86;60.55
29359;BME280;16347;53.232;6.556;2023-02-14T07:56:04;103452.22;;;7.81;60.60
29359;BME280;16347;53.232;6.556;2023-02-14T07:58:32;103456.97;;;7.76;60.59
29359;BME280;16347;53.232;6.556;2023-02-14T08:01:01;103456.13;;;7.76;61.21
29359;BME280;16347;53.232;6.556;2023-02-14T08:03:30;103454.44;;;7.73;60.83
29359;BME280;16347;53.232;6.556;2023-02-14T08:05:58;103453.31;;;7.77;60.96
29359;BME280;16347;53.232;6.556;2023-02-14T08:08:27;103456.97;;;7.76;61.08
29359;BME280;16347;53.232;6.556;2023-02-14T08:10:56;103451.13;;;7.85;61.07
29359;BME280;16347;53.232;6.556;2023-02-14T08:13:27;103453.84;;;7.85;60.89
29359;BME280;16347;53.232;6.556;2023-02-14T08:15:55;103458.38;;;7.85;60.70
29359;BME280;16347;53.232;6.556;2023-02-14T08:18:35;103449.69;;;7.78;60.93
29359;BME280;16347;53.232;6.556;2023-02-14T08:21:06;103450.00;;;7.72;61.20
29359;BME280;16347;53.232;6.556;2023-02-14T08:23:35;103449.91;;;7.73;61.33
29359;BME280;16347;53.232;6.556;2023-02-14T08:26:04;103456.97;;;7.76;62.13
29359;BME280;16347;53.232;6.556;2023-02-14T08:28:34;103456.69;;;7.82;61.74
29359;BME280;16347;53.232;6.556;2023-02-14T08:31:03;103456.75;;;7.81;61.76
29359;BME280;16347;53.232;6.556;2023-02-14T08:33:32;103454.94;;;7.81;61.25
29359;BME280;16347;53.232;6.556;2023-02-14T08:36:00;103458.25;;;7.69;61.24
29359;BME280;16347;53.232;6.556;2023-02-14T08:38:29;103457.97;;;7.56;62.02
29359;BME280;16347;53.232;6.556;2023-02-14T08:40:59;103459.13;;;7.69;62.49
29359;BME280;16347;53.232;6.556;2023-02-14T08:43:31;103452.13;;;7.83;62.38
29359;BME280;16347;53.232;6.556;2023-02-14T08:46:02;103456.75;;;7.81;62.42
29359;BME280;16347;53.232;6.556;2023-02-14T08:48:30;103451.69;;;7.92;62.40
29359;BME280;16347;53.232;6.556;2023-02-14T08:51:04;103461.38;;;7.96;62.42
29359;BME280;16347;53.232;6.556;2023-02-14T08:53:34;103457.81;;;7.95;62.25
29359;BME280;16347;53.232;6.556;2023-02-14T08:56:04;103458.63;;;7.97;62.44
29359;BME280;16347;53.232;6.556;2023-02-14T08:58:33;103464.34;;;7.91;62.44
29359;BME280;16347;53.232;6.556;2023-02-14T09:01:06;103453.19;;;7.97;62.52
29359;BME280;16347;53.232;6.556;2023-02-14T09:03:35;103455.19;;;7.94;61.98
29359;BME280;16347;53.232;6.556;2023-02-14T09:06:05;103456.13;;;7.93;63.11
29359;BME280;16347;53.232;6.556;2023-02-14T09:08:35;103457.00;;;7.93;62.54
29359;BME280;16347;53.232;6.556;2023-02-14T09:11:07;103454.25;;;7.95;63.38
29359;BME280;16347;53.232;6.556;2023-02-14T09:13:35;103455.03;;;7.97;63.11
29359;BME280;16347;53.232;6.556;2023-02-14T09:16:06;103453.19;;;7.97;63.11
29359;BME280;16347;53.232;6.556;2023-02-14T09:18:36;103457.72;;;7.97;62.69
29359;BME280;16347;53.232;6.556;2023-02-14T09:21:06;103449.41;;;7.83;63.40
29359;BME280;16347;53.232;6.556;2023-02-14T09:23:36;103448.91;;;7.57;64.11
29359;BME280;16347;53.232;6.556;2023-02-14T09:26:06;103446.50;;;7.51;64.52
29359;BME280;16347;53.232;6.556;2023-02-14T09:28:35;103445.94;;;7.45;65.48
29359;BME280;16347;53.232;6.556;2023-02-14T09:31:10;103452.81;;;7.33;66.01
29359;BME280;16347;53.232;6.556;2023-02-14T09:33:40;103442.09;;;7.32;66.47
29359;BME280;16347;53.232;6.556;2023-02-14T09:36:09;103434.81;;;7.51;66.11
29359;BME280;16347;53.232;6.556;2023-02-14T09:38:55;103443.41;;;7.59;66.52
29359;BME280;16347;53.232;6.556;2023-02-14T09:41:53;103439.22;;;7.70;66.96
29359;BME280;16347;53.232;6.556;2023-02-14T09:44:31;103443.69;;;7.71;66.53
29359;BME280;16347;53.232;6.556;2023-02-14T09:47:08;103439.16;;;7.72;66.54
29359;BME280;16347;53.232;6.556;2023-02-14T09:49:40;103445.88;;;7.82;66.57
29359;BME280;16347;53.232;6.556;2023-02-14T09:52:13;103445.22;;;7.94;67.02
29359;BME280;16347;53.232;6.556;2023-02-14T09:54:48;103445.06;;;7.97;67.20
29359;BME280;16347;53.232;6.556;2023-02-14T09:57:24;103445.56;;;8.05;67.02
29359;BME280;16347;53.232;6.556;2023-02-14T10:00:02;103441.81;;;8.25;66.91
29359;BME280;16347;53.232;6.556;2023-02-14T10:02:46;103446.88;;;8.33;66.46
29359;BME280;16347;53.232;6.556;2023-02-14T10:05:19;103440.69;;;8.46;66.86
29359;BME280;16347;53.232;6.556;2023-02-14T10:07:59;103432.69;;;8.60;65.91
29359;BME280;16347;53.232;6.556;2023-02-14T10:10:37;103434.84;;;8.54;65.61
29359;BME280;16347;53.232;6.556;2023-02-14T10:13:12;103433.91;;;8.55;65.68
29359;BME280;16347;53.232;6.556;2023-02-14T10:15:46;103432.69;;;8.60;65.76
29359;BME280;16347;53.232;6.556;2023-02-14T10:18:19;103427.22;;;8.77;65.79
29359;BME280;16347;53.232;6.556;2023-02-14T10:20:52;103431.63;;;8.63;65.26
29359;BME280;16347;53.232;6.556;2023-02-14T10:23:28;103425.25;;;8.64;66.14
29359;BME280;16347;53.232;6.556;2023-02-14T10:26:01;103421.50;;;8.66;65.83
29359;BME280;16347;53.232;6.556;2023-02-14T10:28:33;103422.75;;;8.76;66.30
29359;BME280;16347;53.232;6.556;2023-02-14T10:31:18;103422.97;;;8.89;65.80
29359;BME280;16347;53.232;6.556;2023-02-14T10:33:56;103416.31;;;8.95;65.86
29359;BME280;16347;53.232;6.556;2023-02-14T10:36:46;103413.34;;;8.99;65.88
29359;BME280;16347;53.232;6.556;2023-02-14T10:39:52;103410.09;;;9.24;66.47
29359;BME280;16347;53.232;6.556;2023-02-14T10:42:34;103411.94;;;9.23;65.70
29359;BME280;16347;53.232;6.556;2023-02-14T10:45:16;103406.97;;;9.32;66.00
29359;BME280;16347;53.232;6.556;2023-02-14T10:47:53;103405.38;;;9.43;65.73
29359;BME280;16347;53.232;6.556;2023-02-14T10:50:33;103410.13;;;9.40;65.54
29359;BME280;16347;53.232;6.556;2023-02-14T10:53:13;103400.66;;;9.47;65.42
29359;BME280;16347;53.232;6.556;2023-02-14T10:55:48;103403.34;;;9.62;66.22
29359;BME280;16347;53.232;6.556;2023-02-14T10:58:22;103397.59;;;9.83;66.37
29359;BME280;16347;53.232;6.556;2023-02-14T11:00:58;103392.47;;;9.92;66.04
29359;BME280;16347;53.232;6.556;2023-02-14T11:03:29;103391.16;;;9.99;65.93
29359;BME280;16347;53.232;6.556;2023-02-14T11:06:00;103386.22;;;10.06;65.44
29359;BME280;16347;53.232;6.556;2023-02-14T11:08:33;103386.97;;;10.08;65.25
29359;BME280;16347;53.232;6.556;2023-02-14T11:11:10;103381.53;;;10.23;64.79
29359;BME280;16347;53.232;6.556;2023-02-14T11:13:42;103386.38;;;10.33;64.27
29359;BME280;16347;53.232;6.556;2023-02-14T11:16:22;103380.16;;;10.45;65.11
29359;BME280;16347;53.232;6.556;2023-02-14T11:19:08;103379.41;;;10.57;65.11
29359;BME280;16347;53.232;6.556;2023-02-14T11:21:40;103378.13;;;10.62;65.05
29359;BME280;16347;53.232;6.556;2023-02-14T11:24:17;103366.66;;;10.71;65.65
29359;BME280;16347;53.232;6.556;2023-02-14T11:26:47;103368.41;;;10.87;65.91
29359;BME280;16347;53.232;6.556;2023-02-14T11:29:25;103363.78;;;11.01;65.37
29359;BME280;16347;53.232;6.556;2023-02-14T11:31:55;103368.53;;;11.12;65.14
29359;BME280;16347;53.232;6.556;2023-02-14T11:34:33;103357.06;;;11.21;64.57
29359;BME280;16347;53.232;6.556;2023-02-14T11:37:26;103359.72;;;11.35;64.02
29359;BME280;16347;53.232;6.556;2023-02-14T11:39:57;103356.28;;;11.46;64.22
29359;BME280;16347;53.232;6.556;2023-02-14T11:42:37;103343.69;;;11.57;64.29
29359;BME280;16347;53.232;6.556;2023-02-14T11:45:26;103341.06;;;11.68;64.09
29359;BME280;16347;53.232;6.556;2023-02-14T11:48:17;103339.50;;;11.78;63.62
29359;BME280;16347;53.232;6.556;2023-02-14T11:51:05;103332.78;;;11.84;63.13
29359;BME280;16347;53.232;6.556;2023-02-14T11:53:46;103321.78;;;11.98;63.03
29359;BME280;16347;53.232;6.556;2023-02-14T11:56:19;103313.81;;;12.08;63.41
29359;BME280;16347;53.232;6.556;2023-02-14T11:58:53;103312.06;;;12.19;63.46
29359;BME280;16347;53.232;6.556;2023-02-14T12:01:25;103314.03;;;12.30;62.69
29359;BME280;16347;53.232;6.556;2023-02-14T12:03:58;103312.50;;;12.39;61.28
29359;BME280;16347;53.232;6.556;2023-02-14T12:06:31;103309.78;;;12.39;61.23
29359;BME280;16347;53.232;6.556;2023-02-14T12:09:23;103310.06;;;12.47;60.80
29359;BME280;16347;53.232;6.556;2023-02-14T12:11:54;103308.00;;;12.50;61.63
29359;BME280;16347;53.232;6.556;2023-02-14T12:14:27;103305.25;;;12.63;60.28
29359;BME280;16347;53.232;6.556;2023-02-14T12:17:03;103305.16;;;12.52;58.36
29359;BME280;16347;53.232;6.556;2023-02-14T12:19:41;103298.19;;;12.48;58.48
29359;BME280;16347;53.232;6.556;2023-02-14T12:22:15;103301.38;;;12.42;59.36
29359;BME280;16347;53.232;6.556;2023-02-14T12:24:55;103298.94;;;12.50;59.15
29359;BME280;16347;53.232;6.556;2023-02-14T12:27:27;103292.19;;;12.55;59.69
29359;BME280;16347;53.232;6.556;2023-02-14T12:30:03;103283.53;;;12.61;59.75
29359;BME280;16347;53.232;6.556;2023-02-14T12:32:34;103290.72;;;12.75;59.30
29359;BME280;16347;53.232;6.556;2023-02-14T12:35:12;103280.31;;;13.04;60.22
29359;BME280;16347;53.232;6.556;2023-02-14T12:37:52;103279.31;;;13.17;59.51
29359;BME280;16347;53.232;6.556;2023-02-14T12:40:41;103265.25;;;13.34;58.82
29359;BME280;16347;53.232;6.556;2023-02-14T12:43:37;103264.13;;;13.37;56.97
29359;BME280;16347;53.232;6.556;2023-02-14T12:49:18;103266.16;;;13.46;56.97
29359;BME280;16347;53.232;6.556;2023-02-14T12:52:00;103260.22;;;13.63;57.83
29359;BME280;16347;53.232;6.556;2023-02-14T12:54:48;103264.13;;;13.72;56.66
29359;BME280;16347;53.232;6.556;2023-02-14T12:57:35;103259.63;;;13.71;55.42
29359;BME280;16347;53.232;6.556;2023-02-14T13:00:22;103246.34;;;13.66;54.89
29359;BME280;16347;53.232;6.556;2023-02-14T13:03:19;103240.00;;;13.77;55.03
29359;BME280;16347;53.232;6.556;2023-02-14T13:06:02;103245.78;;;13.96;55.60
29359;BME280;16347;53.232;6.556;2023-02-14T13:08:48;103241.19;;;14.08;54.00
29359;BME280;16347;53.232;6.556;2023-02-14T13:11:26;103239.81;;;14.02;54.51
29359;BME280;16347;53.232;6.556;2023-02-14T13:14:04;103234.09;;;14.27;54.81
29359;BME280;16347;53.232;6.556;2023-02-14T13:16:44;103227.50;;;14.30;53.89
29359;BME280;16347;53.232;6.556;2023-02-14T13:19:27;103219.44;;;14.40;53.30
29359;BME280;16347;53.232;6.556;2023-02-14T13:22:00;103214.44;;;14.56;53.33
29359;BME280;16347;53.232;6.556;2023-02-14T13:24:39;103216.81;;;14.60;52.43
29359;BME280;16347;53.232;6.556;2023-02-14T13:27:18;103211.34;;;14.92;54.18
29359;BME280;16347;53.232;6.556;2023-02-14T13:29:54;103211.28;;;14.82;51.60
29359;BME280;16347;53.232;6.556;2023-02-14T13:32:30;103205.78;;;14.82;51.65
29359;BME280;16347;53.232;6.556;2023-02-14T13:35:04;103213.19;;;15.03;51.55
29359;BME280;16347;53.232;6.556;2023-02-14T13:37:35;103211.19;;;15.05;50.81
29359;BME280;16347;53.232;6.556;2023-02-14T13:40:14;103207.38;;;14.96;50.98